Time;durP1;ratioP1;P1;durP2;ratioP2;P2;SDS_P1;SDS_P2;PMS_P1;PMS_P2;Temp;Humidity;BMP_temperature;BMP_pressure;BME280_temperature;BME280_humidity;BME280_pressure;Samples;Min_cycle;Max_cycle;Signal;HPM_P1;HPM_P2
2021/10/06 00:00:43;;;;;;;2.88;1.30;;;12.20;99.90;;;;;;5034155;28;20033;-79
2021/10/06 00:03:08;;;;;;;3.75;0.90;;;12.30;99.90;;;;;;5034083;28;20029;-79
2021/10/06 00:05:34;;;;;;;1.83;0.80;;;12.30;99.90;;;;;;5034340;28;20454;-78
2021/10/06 00:08:00;;;;;;;4.20;1.27;;;12.20;99.90;;;;;;5033873;28;20025;-79
2021/10/06 00:10:26;;;;;;;4.43;0.93;;;12.20;99.90;;;;;;5034370;28;20466;-79
2021/10/06 00:12:52;;;;;;;3.45;1.77;;;12.20;99.90;;;;;;5033910;28;20033;-78
2021/10/06 00:15:18;;;;;;;5.13;1.05;;;12.20;99.90;;;;;;5034145;28;20057;-79
2021/10/06 00:17:44;;;;;;;2.88;0.90;;;12.20;99.90;;;;;;5033627;28;20573;-79
2021/10/06 00:20:13;;;;;;;5.07;2.35;;;12.20;99.90;;;;;;5033587;28;20574;-79
2021/10/06 00:22:39;;;;;;;1.92;0.70;;;12.10;99.90;;;;;;5033690;28;20061;-79
2021/10/06 00:25:06;;;;;;;5.35;1.45;;;12.20;99.90;;;;;;5033857;28;20143;-78
2021/10/06 00:27:32;;;;;;;3.00;0.82;;;12.20;99.90;;;;;;5033974;28;20057;-79
2021/10/06 00:29:57;;;;;;;3.08;0.93;;;12.20;99.90;;;;;;5033859;28;20037;-79
2021/10/06 00:32:23;;;;;;;5.00;1.23;;;12.20;99.90;;;;;;5033547;28;20032;-78
2021/10/06 00:34:49;;;;;;;3.67;0.82;;;12.20;99.90;;;;;;5033831;28;20071;-78
2021/10/06 00:37:15;;;;;;;3.35;0.80;;;12.20;99.90;;;;;;5033533;28;20752;-78
2021/10/06 00:39:41;;;;;;;7.78;0.95;;;12.20;99.90;;;;;;5033415;28;20495;-78
2021/10/06 00:42:07;;;;;;;5.75;1.17;;;12.20;99.90;;;;;;5048532;28;20037;-78
2021/10/06 00:44:35;;;;;;;8.05;1.10;;;12.30;99.90;;;;;;5033706;28;20030;-79
2021/10/06 00:47:02;;;;;;;6.70;1.27;;;12.30;99.90;;;;;;5048724;28;20041;-78
2021/10/06 00:49:28;;;;;;;2.40;0.73;;;12.30;99.90;;;;;;5048851;28;20074;-79
2021/10/06 00:51:54;;;;;;;8.00;1.27;;;12.30;99.90;;;;;;5033311;28;20032;-78
2021/10/06 00:54:20;;;;;;;5.22;1.10;;;12.30;99.90;;;;;;5033552;28;20101;-79
2021/10/06 00:56:45;;;;;;;4.80;0.90;;;12.30;99.90;;;;;;5048476;28;20040;-78
2021/10/06 00:59:11;;;;;;;2.40;0.70;;;12.30;99.90;;;;;;5033011;28;20069;-79
2021/10/06 01:01:37;;;;;;;4.03;0.95;;;12.30;99.90;;;;;;5033059;28;20556;-79
2021/10/06 01:04:05;;;;;;;3.60;0.80;;;12.40;99.90;;;;;;5032718;28;20382;-78
2021/10/06 01:06:31;;;;;;;5.65;0.80;;;12.30;99.90;;;;;;5033202;28;20036;-79
2021/10/06 01:08:59;;;;;;;3.80;1.15;;;12.30;99.90;;;;;;5048154;28;20056;-78
2021/10/06 01:11:26;;;;;;;5.25;0.90;;;12.30;99.90;;;;;;5033146;28;20044;-79
2021/10/06 01:13:52;;;;;;;2.60;0.85;;;12.30;99.90;;;;;;5048293;28;20049;-78
2021/10/06 01:16:18;;;;;;;6.10;1.33;;;12.30;99.90;;;;;;5032725;28;20542;-78
2021/10/06 01:18:44;;;;;;;2.42;0.82;;;12.30;99.90;;;;;;5048005;28;20041;-78
2021/10/06 01:21:16;;;;;;;6.93;1.35;;;12.30;99.90;;;;;;5032734;28;20112;-78
2021/10/06 01:23:47;;;;;;;3.17;1.02;;;12.20;99.90;;;;;;5032541;28;20116;-79
2021/10/06 01:26:19;;;;;;;5.35;0.93;;;12.30;99.90;;;;;;5047360;28;20435;-78
2021/10/06 01:28:51;;;;;;;4.13;1.02;;;12.30;99.90;;;;;;5047423;28;20372;-78
2021/10/06 01:31:17;;;;;;;3.42;1.00;;;12.20;99.90;;;;;;5032441;28;20421;-78
2021/10/06 01:33:44;;;;;;;5.80;1.40;;;12.30;99.90;;;;;;5032751;28;20037;-78
2021/10/06 01:36:09;;;;;;;5.63;1.10;;;12.20;99.90;;;;;;5032365;28;20044;-78
2021/10/06 01:38:35;;;;;;;6.28;1.40;;;12.30;99.90;;;;;;5032474;28;20112;-78
2021/10/06 01:41:02;;;;;;;8.27;1.00;;;12.20;99.90;;;;;;5047824;28;20029;-78
2021/10/06 01:43:27;;;;;;;2.75;1.30;;;12.20;99.90;;;;;;5032563;28;20471;-78
2021/10/06 01:45:53;;;;;;;5.13;1.08;;;12.20;99.90;;;;;;5032503;28;20116;-77
2021/10/06 01:48:19;;;;;;;4.40;1.00;;;12.20;99.90;;;;;;5032146;28;20041;-78
2021/10/06 01:50:45;;;;;;;7.22;2.10;;;12.20;99.90;;;;;;5047633;28;20029;-78
2021/10/06 01:53:15;;;;;;;6.20;1.00;;;12.20;99.90;;;;;;5032032;28;20060;-78
2021/10/06 01:55:43;;;;;;;3.67;1.35;;;12.20;99.90;;;;;;5047425;28;20029;-78
2021/10/06 01:58:19;;;;;;;4.63;1.15;;;12.20;99.90;;;;;;5047168;28;20029;-78
2021/10/06 02:00:49;;;;;;;4.70;0.98;;;12.20;99.90;;;;;;5047322;28;20041;-78
2021/10/06 02:03:14;;;;;;;4.47;0.90;;;12.20;99.90;;;;;;5032309;28;20033;-78
2021/10/06 02:05:40;;;;;;;5.90;1.27;;;12.20;99.90;;;;;;5032459;28;20360;-78
2021/10/06 02:08:09;;;;;;;14.13;2.38;;;12.20;99.90;;;;;;5031930;28;20022;-77
2021/10/06 02:10:41;;;;;;;3.78;0.90;;;12.20;99.90;;;;;;5047412;28;20471;-78
2021/10/06 02:13:07;;;;;;;6.20;1.23;;;12.20;99.90;;;;;;5032244;28;20030;-77
2021/10/06 02:15:33;;;;;;;6.35;0.82;;;12.30;99.90;;;;;;5032290;28;20041;-78
2021/10/06 02:18:00;;;;;;;8.73;1.42;;;12.30;99.90;;;;;;5050608;28;20051;-78
2021/10/06 02:20:28;;;;;;;7.15;1.15;;;12.20;99.90;;;;;;5051476;28;20025;-79
2021/10/06 02:22:54;;;;;;;7.70;1.17;;;12.30;99.90;;;;;;5036255;28;20041;-78
2021/10/06 02:25:20;;;;;;;8.45;1.10;;;12.20;99.90;;;;;;5035965;28;20052;-79
2021/10/06 02:27:47;;;;;;;4.20;0.90;;;12.30;99.90;;;;;;5036083;28;20072;-78
2021/10/06 02:30:15;;;;;;;3.28;0.80;;;12.40;99.90;;;;;;5050862;28;20029;-78
2021/10/06 02:32:42;;;;;;;6.45;0.95;;;12.40;99.90;;;;;;5036128;28;20033;-78
2021/10/06 02:35:08;;;;;;;5.95;1.15;;;12.30;99.90;;;;;;5035884;28;20502;-79
2021/10/06 02:37:36;;;;;;;4.38;1.20;;;12.30;99.90;;;;;;5035783;28;20037;-78
2021/10/06 02:40:02;;;;;;;3.67;1.20;;;12.20;99.90;;;;;;5035561;28;20494;-78
2021/10/06 02:42:28;;;;;;;5.93;2.00;;;12.10;99.90;;;;;;5050661;28;20397;-78
2021/10/06 02:44:54;;;;;;;7.32;1.45;;;11.90;99.90;;;;;;5051256;28;20025;-78
2021/10/06 02:47:19;;;;;;;2.78;1.20;;;11.80;99.90;;;;;;5035704;28;20079;-78
2021/10/06 02:49:45;;;;;;;4.85;1.30;;;11.70;99.90;;;;;;5035484;28;20025;-79
2021/10/06 02:52:11;;;;;;;8.02;1.83;;;11.70;99.90;;;;;;5035320;28;20116;-78
2021/10/06 02:54:37;;;;;;;3.92;1.40;;;11.60;99.90;;;;;;5035461;28;20104;-78
2021/10/06 02:57:04;;;;;;;5.85;1.20;;;11.60;99.90;;;;;;5035631;28;20443;-79
2021/10/06 02:59:30;;;;;;;7.68;1.55;;;11.50;99.90;;;;;;5035556;28;20104;-78
2021/10/06 03:01:57;;;;;;;6.70;1.65;;;11.40;99.90;;;;;;5035562;28;20029;-78
2021/10/06 03:04:23;;;;;;;6.28;1.58;;;11.30;99.90;;;;;;5035090;28;20036;-79
2021/10/06 03:06:50;;;;;;;9.50;1.38;;;11.20;99.90;;;;;;5050664;28;20069;-78
2021/10/06 03:09:16;;;;;;;4.78;1.45;;;11.20;99.90;;;;;;5034883;28;20068;-78
2021/10/06 03:11:43;;;;;;;3.70;1.30;;;11.20;99.90;;;;;;5050555;28;20033;-78
2021/10/06 03:14:09;;;;;;;6.22;1.58;;;11.30;99.90;;;;;;5050272;28;20052;-78
2021/10/06 03:16:35;;;;;;;4.07;1.30;;;11.30;99.90;;;;;;5050564;28;20042;-78
2021/10/06 03:19:01;;;;;;;5.43;1.48;;;11.30;99.90;;;;;;5050412;28;20029;-77
2021/10/06 03:21:27;;;;;;;7.63;1.10;;;11.30;99.90;;;;;;5034670;28;20034;-78
2021/10/06 03:23:55;;;;;;;7.93;1.17;;;11.30;99.90;;;;;;5034905;28;20382;-77
2021/10/06 03:26:21;;;;;;;4.00;1.20;;;11.40;99.90;;;;;;5034968;28;20056;-78
2021/10/06 03:28:46;;;;;;;5.65;1.08;;;11.50;99.90;;;;;;5050291;28;20061;-78
2021/10/06 03:31:12;;;;;;;8.88;1.88;;;11.60;99.90;;;;;;5034853;28;20060;-78
2021/10/06 03:33:38;;;;;;;5.38;1.00;;;11.60;99.90;;;;;;5050188;28;20071;-78
2021/10/06 03:36:05;;;;;;;9.18;1.70;;;11.70;99.90;;;;;;5034916;28;20045;-77
2021/10/06 03:38:31;;;;;;;6.22;1.67;;;11.60;99.90;;;;;;5049959;28;20079;-78
2021/10/06 03:40:57;;;;;;;2.88;0.95;;;11.70;99.90;;;;;;5034817;28;20033;-77
2021/10/06 03:43:23;;;;;;;4.75;1.65;;;11.70;99.90;;;;;;5034372;28;20034;-77
2021/10/06 03:45:49;;;;;;;6.35;1.75;;;11.70;99.90;;;;;;5006331;28;20052;-77
2021/10/06 03:48:15;;;;;;;11.30;2.67;;;11.70;99.90;;;;;;5049758;28;20026;-74
2021/10/06 03:50:41;;;;;;;7.32;1.50;;;11.70;99.90;;;;;;5045571;28;20071;-74
2021/10/06 03:53:07;;;;;;;10.05;1.80;;;11.70;99.90;;;;;;5034306;28;20045;-79
2021/10/06 03:55:33;;;;;;;5.75;1.63;;;11.80;99.90;;;;;;5053480;28;20059;-82
2021/10/06 03:57:59;;;;;;;6.00;1.80;;;11.80;99.90;;;;;;5067139;28;20490;-77
2021/10/06 04:00:25;;;;;;;8.52;1.83;;;11.80;99.90;;;;;;5053718;28;20070;-75
2021/10/06 04:02:51;;;;;;;7.72;1.90;;;11.90;99.90;;;;;;5054376;28;20033;-75
2021/10/06 04:05:17;;;;;;;7.65;2.03;;;11.90;99.90;;;;;;5050027;28;20041;-74
2021/10/06 04:07:43;;;;;;;13.90;1.90;;;11.80;99.90;;;;;;5069436;28;20066;-79
2021/10/06 04:10:09;;;;;;;7.78;1.77;;;11.90;99.90;;;;;;5054133;28;20532;-72
2021/10/06 04:12:35;;;;;;;12.23;2.50;;;11.80;99.90;;;;;;5053520;28;20474;-72
2021/10/06 04:15:01;;;;;;;8.52;2.65;;;11.90;99.90;;;;;;5068416;28;20398;-72
2021/10/06 04:17:27;;;;;;;8.70;1.88;;;11.90;99.90;;;;;;5052628;28;20040;-73
2021/10/06 04:19:52;;;;;;;10.10;2.70;;;11.90;99.90;;;;;;5065447;28;20051;-74
2021/10/06 04:22:18;;;;;;;7.40;2.47;;;11.90;99.90;;;;;;5073047;28;20428;-72
2021/10/06 04:24:44;;;;;;;5.88;2.03;;;11.90;99.90;;;;;;5073914;28;20040;-73
2021/10/06 04:27:10;;;;;;;6.07;1.90;;;11.90;99.90;;;;;;5073524;28;20488;-73
2021/10/06 04:29:36;;;;;;;4.75;1.80;;;11.90;99.90;;;;;;5073592;28;20062;-73
2021/10/06 04:32:03;;;;;;;9.45;1.92;;;11.90;99.90;;;;;;5073501;28;20067;-74
2021/10/06 04:34:30;;;;;;;6.57;1.48;;;11.90;99.90;;;;;;5065331;28;20047;-73
2021/10/06 04:36:55;;;;;;;4.65;1.52;;;12.00;99.90;;;;;;5068598;28;20033;-73
2021/10/06 04:39:21;;;;;;;7.35;1.60;;;12.00;99.90;;;;;;5052574;28;20157;-72
2021/10/06 04:41:47;;;;;;;3.63;1.38;;;12.00;99.90;;;;;;5068452;28;20087;-79
2021/10/06 04:44:13;;;;;;;3.90;1.02;;;12.00;99.90;;;;;;5068956;28;20025;-77
2021/10/06 04:46:38;;;;;;;4.78;1.15;;;12.00;99.90;;;;;;5053323;28;20059;-78
2021/10/06 04:49:04;;;;;;;6.43;1.50;;;12.10;99.90;;;;;;5074611;28;20366;-82
2021/10/06 04:51:30;;;;;;;6.18;1.48;;;12.10;99.90;;;;;;5055293;28;20074;-76
2021/10/06 04:53:56;;;;;;;7.65;1.20;;;12.00;99.90;;;;;;5072278;28;20035;-80
2021/10/06 04:56:22;;;;;;;8.25;2.13;;;12.10;99.90;;;;;;5072844;28;20040;-81
2021/10/06 04:58:48;;;;;;;6.75;1.80;;;12.00;99.90;;;;;;5073399;28;20032;-79
2021/10/06 05:01:14;;;;;;;4.53;1.20;;;12.00;99.90;;;;;;5065685;28;20043;-84
2021/10/06 05:03:40;;;;;;;6.60;1.10;;;11.90;99.90;;;;;;5053390;28;20029;-81
2021/10/06 05:06:06;;;;;;;3.83;1.15;;;11.90;99.90;;;;;;5068634;28;20474;-81
2021/10/06 05:08:33;;;;;;;4.80;1.00;;;11.80;99.90;;;;;;5051397;28;20142;-81
2021/10/06 05:10:59;;;;;;;5.78;1.17;;;11.80;99.90;;;;;;5052873;28;20037;-79
2021/10/06 05:13:25;;;;;;;8.75;1.92;;;11.80;99.90;;;;;;5068116;28;20052;-73
2021/10/06 05:15:51;;;;;;;10.00;4.38;;;11.80;99.90;;;;;;5068075;28;20068;-78
2021/10/06 05:18:16;;;;;;;4.13;1.73;;;11.70;99.90;;;;;;5052333;28;20043;-77
2021/10/06 05:20:42;;;;;;;7.00;1.55;;;11.70;99.90;;;;;;5032933;28;20037;-77
2021/10/06 05:23:08;;;;;;;6.18;1.50;;;11.60;99.90;;;;;;5031597;28;20521;-77
2021/10/06 05:25:35;;;;;;;5.10;1.17;;;11.60;99.90;;;;;;5015242;28;20116;-77
2021/10/06 05:28:02;;;;;;;5.25;1.60;;;11.60;99.90;;;;;;5032104;28;20037;-77
2021/10/06 05:30:28;;;;;;;7.43;1.50;;;11.60;99.90;;;;;;5031180;28;20033;-78
2021/10/06 05:32:54;;;;;;;7.50;1.42;;;11.60;99.90;;;;;;5031227;28;20030;-77
2021/10/06 05:35:20;;;;;;;8.25;1.20;;;11.60;99.90;;;;;;5032203;28;20098;-77
2021/10/06 05:37:47;;;;;;;5.57;1.38;;;11.70;99.90;;;;;;5031415;28;20158;-77
2021/10/06 05:40:15;;;;;;;5.75;1.15;;;11.70;99.90;;;;;;5032372;28;20502;-77
2021/10/06 05:42:41;;;;;;;6.20;1.90;;;11.70;99.90;;;;;;5030903;28;20041;-78
2021/10/06 05:45:08;;;;;;;8.70;1.40;;;11.70;99.90;;;;;;5031061;28;20040;-77
2021/10/06 05:47:33;;;;;;;11.20;2.20;;;11.70;99.90;;;;;;5030876;28;20030;-77
2021/10/06 05:50:00;;;;;;;5.03;1.17;;;11.70;99.90;;;;;;5044810;28;20056;-77
2021/10/06 05:52:26;;;;;;;5.63;1.63;;;11.70;99.90;;;;;;5050979;28;20032;-78
2021/10/06 05:54:52;;;;;;;4.82;1.35;;;11.70;99.90;;;;;;5052020;28;20095;-77
2021/10/06 05:57:18;;;;;;;14.63;3.55;;;11.70;99.90;;;;;;5066913;28;20037;-78
2021/10/06 05:59:44;;;;;;;8.95;1.42;;;11.80;99.90;;;;;;5051975;28;20069;-78
2021/10/06 06:02:10;;;;;;;5.97;1.90;;;11.70;99.90;;;;;;5052199;28;20029;-77
2021/10/06 06:04:36;;;;;;;6.80;2.22;;;11.80;99.90;;;;;;5067033;28;20036;-77
2021/10/06 06:07:02;;;;;;;6.97;1.30;;;11.80;99.90;;;;;;5052241;28;20043;-77
2021/10/06 06:09:28;;;;;;;6.35;1.90;;;11.70;99.90;;;;;;5066369;28;20116;-73
2021/10/06 06:11:53;;;;;;;8.75;1.40;;;11.80;99.90;;;;;;5031953;28;20389;-77
2021/10/06 06:14:22;;;;;;;5.78;2.45;;;11.80;99.90;;;;;;5032323;28;20086;-78
2021/10/06 06:16:48;;;;;;;9.25;1.60;;;11.80;99.90;;;;;;5031791;28;20069;-77
2021/10/06 06:19:14;;;;;;;8.50;1.52;;;11.80;99.90;;;;;;5031843;28;20482;-77
2021/10/06 06:21:42;;;;;;;9.15;1.58;;;11.80;99.90;;;;;;5031901;28;20034;-78
2021/10/06 06:24:07;;;;;;;5.53;1.60;;;11.90;99.90;;;;;;5047049;28;20028;-77
2021/10/06 06:26:33;;;;;;;8.98;1.10;;;11.90;99.90;;;;;;5047599;28;20037;-77
2021/10/06 06:28:59;;;;;;;5.40;1.23;;;11.90;99.90;;;;;;5033223;28;20108;-77
2021/10/06 06:31:28;;;;;;;6.32;1.38;;;12.00;99.90;;;;;;5035320;28;20056;-77
2021/10/06 06:33:54;;;;;;;5.18;1.48;;;12.00;99.90;;;;;;5031779;28;20040;-77
2021/10/06 06:36:19;;;;;;;8.57;1.63;;;12.00;99.90;;;;;;5047251;28;20042;-77
2021/10/06 06:38:45;;;;;;;4.45;1.95;;;12.00;99.90;;;;;;5032048;28;20025;-77
2021/10/06 06:41:11;;;;;;;6.38;1.65;;;12.00;99.90;;;;;;5033458;28;20061;-78
2021/10/06 06:43:36;;;;;;;8.13;1.73;;;12.00;99.90;;;;;;5037440;28;20041;-77
2021/10/06 06:46:02;;;;;;;6.32;1.00;;;12.10;99.90;;;;;;5051814;28;20026;-77
2021/10/06 06:48:28;;;;;;;6.50;1.48;;;12.10;99.90;;;;;;5035410;28;20041;-77
2021/10/06 06:50:54;;;;;;;6.25;1.60;;;12.10;99.90;;;;;;5051256;28;20034;-77
2021/10/06 06:53:21;;;;;;;11.45;1.73;;;12.10;99.90;;;;;;5050517;28;20393;-77
2021/10/06 06:55:47;;;;;;;6.40;1.52;;;12.10;99.90;;;;;;5034864;28;20022;-70
2021/10/06 06:58:14;;;;;;;9.93;2.13;;;12.10;99.90;;;;;;5039460;28;20409;-78
2021/10/06 07:00:40;;;;;;;5.07;1.20;;;12.00;99.90;;;;;;5040466;28;20173;-78
2021/10/06 07:03:06;;;;;;;14.00;1.65;;;12.00;99.90;;;;;;5054942;28;20103;-77
2021/10/06 07:05:32;;;;;;;10.32;1.20;;;12.00;99.90;;;;;;5036038;28;20055;-78
2021/10/06 07:07:58;;;;;;;4.88;1.20;;;12.00;99.90;;;;;;5050864;28;20100;-78
2021/10/06 07:10:27;;;;;;;8.25;1.70;;;12.10;99.90;;;;;;5050802;28;20095;-79
2021/10/06 07:12:52;;;;;;;7.30;1.55;;;12.20;99.90;;;;;;5050281;28;20040;-78
2021/10/06 07:15:21;;;;;;;6.57;1.42;;;12.30;99.90;;;;;;5033860;28;20030;-79
2021/10/06 07:17:56;;;;;;;8.60;1.77;;;12.30;99.90;;;;;;5049967;28;20469;-79
2021/10/06 07:20:23;;;;;;;8.13;1.73;;;12.20;99.90;;;;;;5033964;28;20057;-79
2021/10/06 07:22:48;;;;;;;8.63;1.40;;;12.20;99.90;;;;;;5035123;28;20451;-77
2021/10/06 07:25:17;;;;;;;4.78;1.92;;;12.30;99.90;;;;;;5050606;28;20064;-79
2021/10/06 07:27:43;;;;;;;8.77;1.33;;;12.30;99.90;;;;;;5034830;28;20427;-79
2021/10/06 07:30:11;;;;;;;6.22;1.48;;;12.30;99.90;;;;;;5050111;28;20076;-79
2021/10/06 07:32:37;;;;;;;5.35;1.23;;;12.40;99.90;;;;;;5050168;28;20429;-79
2021/10/06 07:35:04;;;;;;;5.30;1.48;;;12.40;99.90;;;;;;5034655;28;20112;-79
2021/10/06 07:37:30;;;;;;;5.43;1.17;;;12.40;99.90;;;;;;5049572;28;20040;-78
2021/10/06 07:39:56;;;;;;;10.45;2.45;;;12.50;99.90;;;;;;5049637;28;20615;-77
2021/10/06 07:42:22;;;;;;;8.02;1.75;;;12.50;99.90;;;;;;5034286;28;20407;-77
2021/10/06 07:44:49;;;;;;;7.53;1.17;;;12.40;99.90;;;;;;5034698;28;20061;-73
2021/10/06 07:47:15;;;;;;;4.10;1.20;;;12.50;99.90;;;;;;5034220;28;20482;-78
2021/10/06 07:49:42;;;;;;;6.50;1.38;;;12.50;99.90;;;;;;5054384;28;20045;-78
2021/10/06 07:52:10;;;;;;;5.95;1.55;;;12.50;99.90;;;;;;5054459;28;20163;-78
2021/10/06 07:54:37;;;;;;;5.22;2.10;;;12.50;99.90;;;;;;5053860;28;20057;-78
2021/10/06 07:57:03;;;;;;;9.20;1.70;;;12.50;99.90;;;;;;5068978;28;20485;-78
2021/10/06 07:59:29;;;;;;;5.00;1.17;;;12.60;99.90;;;;;;5053716;28;20032;-78
2021/10/06 08:01:55;;;;;;;7.53;1.38;;;12.50;99.90;;;;;;5069613;28;20025;-78
2021/10/06 08:04:21;;;;;;;3.72;1.13;;;12.50;99.90;;;;;;5053807;28;20064;-78
2021/10/06 08:06:48;;;;;;;3.92;1.08;;;12.50;99.90;;;;;;5069270;28;20462;-77
2021/10/06 08:09:13;;;;;;;5.63;1.10;;;12.50;99.90;;;;;;5054390;28;20064;-78
2021/10/06 08:11:39;;;;;;;8.57;1.35;;;12.60;99.90;;;;;;5053778;28;20072;-81
2021/10/06 08:14:05;;;;;;;5.63;1.48;;;12.60;99.90;;;;;;5051561;28;20036;-81
2021/10/06 08:16:31;;;;;;;7.40;1.30;;;12.60;99.90;;;;;;5069250;28;20481;-78
2021/10/06 08:18:56;;;;;;;3.00;0.98;;;12.70;99.90;;;;;;5068898;28;20449;-76
2021/10/06 08:21:22;;;;;;;6.68;1.45;;;12.80;99.90;;;;;;5069331;28;20427;-79
2021/10/06 08:23:48;;;;;;;9.18;2.20;;;12.80;99.90;;;;;;5053471;28;20481;-79
2021/10/06 08:26:14;;;;;;;7.93;1.73;;;12.80;99.90;;;;;;5053779;28;20063;-79
2021/10/06 08:28:40;;;;;;;6.97;1.13;;;12.80;99.90;;;;;;5053394;28;20036;-79
2021/10/06 08:31:06;;;;;;;5.95;1.40;;;12.80;99.90;;;;;;5053469;28;20041;-79
2021/10/06 08:33:31;;;;;;;6.03;0.93;;;12.90;99.90;;;;;;5068891;28;20485;-78
2021/10/06 08:35:57;;;;;;;7.90;1.55;;;12.80;99.90;;;;;;5068812;28;20548;-76
2021/10/06 08:38:23;;;;;;;8.65;1.50;;;12.90;99.90;;;;;;5053509;28;20044;-81
2021/10/06 08:40:49;;;;;;;18.23;2.65;;;13.00;99.90;;;;;;5053347;28;20056;-79
2021/10/06 08:43:15;;;;;;;6.72;1.02;;;13.20;99.90;;;;;;5068831;28;20059;-80
2021/10/06 08:45:41;;;;;;;7.80;1.92;;;13.20;99.90;;;;;;5053137;28;20104;-79
2021/10/06 08:48:10;;;;;;;6.45;1.10;;;13.20;99.90;;;;;;5053365;28;20495;-80
2021/10/06 08:50:39;;;;;;;4.68;1.00;;;13.30;99.90;;;;;;5052618;28;20118;-80
2021/10/06 08:53:05;;;;;;;8.20;1.35;;;13.20;99.90;;;;;;5053089;28;20040;-79
2021/10/06 08:55:31;;;;;;;9.35;1.67;;;13.20;99.90;;;;;;5067929;28;20028;-80
2021/10/06 08:58:03;;;;;;;5.85;1.45;;;13.10;99.90;;;;;;5053194;28;20071;-80
2021/10/06 09:00:30;;;;;;;4.95;1.20;;;13.10;99.90;;;;;;5053011;28;20029;-81
2021/10/06 09:03:07;;;;;;;4.90;1.98;;;13.20;99.90;;;;;;5068458;28;20057;-81
2021/10/06 09:05:33;;;;;;;3.55;0.98;;;13.20;99.90;;;;;;5051345;28;20048;-80
2021/10/06 09:08:05;;;;;;;3.85;1.20;;;13.30;99.90;;;;;;5068587;28;20474;-78
2021/10/06 09:10:35;;;;;;;5.95;1.17;;;13.40;99.90;;;;;;5051115;28;20029;-80
2021/10/06 09:13:06;;;;;;;8.05;1.20;;;13.40;99.90;;;;;;5052736;28;20040;-79
2021/10/06 09:15:50;;;;;;;5.20;1.38;;;13.40;99.90;;;;;;5051463;28;20032;-80
2021/10/06 09:18:25;;;;;;;5.88;1.48;;;13.30;99.90;;;;;;5067401;28;20049;-81
2021/10/06 09:20:52;;;;;;;5.00;1.20;;;13.30;99.90;;;;;;5067455;28;20382;-81
2021/10/06 09:23:21;;;;;;;8.40;1.23;;;13.30;99.90;;;;;;5068090;28;20120;-80
2021/10/06 09:25:55;;;;;;;5.05;1.13;;;13.30;99.90;;;;;;5067192;28;20029;-80
2021/10/06 09:28:34;;;;;;;6.00;1.23;;;13.30;99.90;;;;;;5052727;28;20033;-79
2021/10/06 09:31:03;;;;;;;6.32;1.40;;;13.40;99.90;;;;;;5051005;28;20422;-81
2021/10/06 09:33:56;;;;;;;3.65;1.00;;;13.50;99.90;;;;;;5067901;28;20178;-82
2021/10/06 09:36:32;;;;;;;3.83;1.00;;;13.60;99.90;;;;;;5067388;28;20116;-82
2021/10/06 09:39:05;;;;;;;5.13;1.00;;;13.80;99.90;;;;;;5051189;28;20180;-80
2021/10/06 09:41:47;;;;;;;6.40;1.05;;;13.70;99.90;;;;;;5051719;28;20033;-76
2021/10/06 09:44:22;;;;;;;5.85;1.08;;;13.70;99.90;;;;;;5052627;28;20108;-76
2021/10/06 09:47:01;;;;;;;5.95;1.30;;;13.80;99.90;;;;;;5030921;28;20364;-80
2021/10/06 09:49:35;;;;;;;9.27;1.70;;;14.00;99.90;;;;;;5048456;28;20067;-79
2021/10/06 09:52:25;;;;;;;6.15;1.95;;;14.10;99.90;;;;;;5051041;28;20108;-74
2021/10/06 09:55:04;;;;;;;6.53;1.08;;;14.10;99.90;;;;;;5050948;28;20095;-78
2021/10/06 09:57:40;;;;;;;6.55;1.25;;;14.40;99.90;;;;;;5051881;28;20052;-76
2021/10/06 10:00:09;;;;;;;3.40;0.95;;;14.60;99.90;;;;;;5052307;28;20075;-78
2021/10/06 10:02:36;;;;;;;4.57;0.93;;;14.80;99.90;;;;;;5052027;28;20086;-78
2021/10/06 10:05:05;;;;;;;2.78;0.77;;;14.90;99.90;;;;;;5050683;28;20062;-78
2021/10/06 10:07:31;;;;;;;9.40;2.17;;;14.80;99.90;;;;;;5052503;28;20092;-82
2021/10/06 10:10:00;;;;;;;5.63;1.08;;;14.90;99.90;;;;;;5052282;28;20025;-86
2021/10/06 10:12:28;;;;;;;5.88;1.08;;;14.80;99.90;;;;;;5052666;28;20112;-81
2021/10/06 10:14:56;;;;;;;12.10;2.38;;;14.50;99.90;;;;;;5052468;28;20670;-86
2021/10/06 10:17:22;;;;;;;5.63;1.20;;;14.30;99.90;;;;;;5051341;28;20113;-84
2021/10/06 10:20:02;;;;;;;3.63;0.93;;;14.20;99.90;;;;;;5052490;28;20045;-85
2021/10/06 10:22:41;;;;;;;9.73;1.40;;;14.20;99.90;;;;;;5034051;28;20159;-86
2021/10/06 10:25:19;;;;;;;7.40;0.95;;;14.10;99.90;;;;;;5051105;28;20036;-84
2021/10/06 10:28:10;;;;;;;3.40;0.98;;;14.00;99.90;;;;;;5051166;28;20178;-84
2021/10/06 10:30:39;;;;;;;5.25;1.65;;;14.00;99.90;;;;;;5052046;28;20064;-84
2021/10/06 10:33:07;;;;;;;3.08;1.00;;;13.90;99.90;;;;;;5051260;28;20128;-84
2021/10/06 10:35:42;;;;;;;8.18;1.33;;;14.00;99.90;;;;;;5052416;28;20033;-85
2021/10/06 10:38:15;;;;;;;7.75;1.10;;;14.10;99.90;;;;;;5054289;28;20029;-84
2021/10/06 10:40:53;;;;;;;5.30;1.30;;;14.30;99.90;;;;;;5054639;28;20072;-86
2021/10/06 10:43:45;;;;;;;3.47;1.00;;;14.20;99.90;;;;;;5054699;28;20032;-85
2021/10/06 10:46:12;;;;;;;10.65;2.05;;;14.60;99.90;;;;;;5053483;28;20025;-84
2021/10/06 10:48:56;;;;;;;4.22;1.10;;;14.60;99.90;;;;;;5037912;28;20037;-84
2021/10/06 10:51:41;;;;;;;4.40;1.10;;;14.70;99.90;;;;;;5055834;28;20048;-85
2021/10/06 10:54:10;;;;;;;6.50;1.13;;;14.80;99.90;;;;;;5054550;28;20041;-84
2021/10/06 10:56:50;;;;;;;5.10;1.33;;;14.90;99.90;;;;;;5054328;28;20052;-86
2021/10/06 10:59:23;;;;;;;6.13;1.17;;;15.10;99.90;;;;;;5054601;28;20033;-85
2021/10/06 11:01:55;;;;;;;5.13;1.08;;;15.10;99.90;;;;;;5055581;28;20144;-84
2021/10/06 11:04:34;;;;;;;3.88;1.30;;;15.30;99.90;;;;;;5070980;28;20456;-85
2021/10/06 11:07:18;;;;;;;4.38;1.10;;;15.70;99.90;;;;;;5054733;28;20055;-86
2021/10/06 11:09:57;;;;;;;5.43;1.08;;;15.70;99.90;;;;;;5055532;28;20112;-86
2021/10/06 11:12:23;;;;;;;2.65;0.98;;;15.60;99.90;;;;;;5054413;28;20036;-85
2021/10/06 11:15:13;;;;;;;6.53;1.20;;;15.40;99.90;;;;;;5055084;28;20033;-85
2021/10/06 11:18:19;;;;;;;6.35;1.00;;;15.20;99.90;;;;;;5054929;28;20045;-86
2021/10/06 11:20:58;;;;;;;4.72;0.93;;;15.30;99.90;;;;;;5055184;28;20056;-85
2021/10/06 11:23:30;;;;;;;5.65;1.13;;;15.30;99.90;;;;;;5038082;28;20033;-86
2021/10/06 11:26:21;;;;;;;2.92;1.10;;;15.60;99.90;;;;;;5055153;28;20033;-84
2021/10/06 11:28:50;;;;;;;4.82;1.00;;;15.80;99.90;;;;;;5055121;28;20036;-85
2021/10/06 11:31:31;;;;;;;5.07;0.95;;;15.40;99.90;;;;;;5054904;28;20071;-85
2021/10/06 11:34:03;;;;;;;5.95;1.30;;;15.40;99.90;;;;;;5055287;28;20056;-87
2021/10/06 11:36:34;;;;;;;6.32;1.00;;;15.30;99.90;;;;;;5054917;28;20040;-84
2021/10/06 11:39:11;;;;;;;13.10;1.20;;;15.10;99.90;;;;;;5053261;28;20032;-83
2021/10/06 11:41:47;;;;;;;6.15;1.25;;;15.00;99.90;;;;;;5054617;28;20414;-84
2021/10/06 11:44:27;;;;;;;4.70;0.85;;;14.80;99.90;;;;;;5070375;28;20040;-86
2021/10/06 11:47:06;;;;;;;5.40;1.13;;;14.90;99.90;;;;;;5070168;28;20445;-86
2021/10/06 11:49:40;;;;;;;8.70;2.22;;;14.70;99.90;;;;;;5054559;28;20029;-83
2021/10/06 11:52:10;;;;;;;2.67;0.73;;;14.70;99.90;;;;;;5070065;28;20029;-85
2021/10/06 11:54:36;;;;;;;3.85;1.15;;;14.50;99.90;;;;;;5054504;28;20366;-84
2021/10/06 11:57:06;;;;;;;4.38;1.17;;;14.60;99.90;;;;;;5053101;28;20033;-84
2021/10/06 11:59:33;;;;;;;3.40;1.10;;;14.70;99.90;;;;;;5069942;28;20040;-84
2021/10/06 12:02:08;;;;;;;6.13;1.10;;;14.60;99.90;;;;;;5054031;28;20036;-84
2021/10/06 12:04:38;;;;;;;5.35;1.00;;;14.60;99.90;;;;;;5054193;28;20025;-85
2021/10/06 12:07:12;;;;;;;3.13;0.88;;;14.60;99.90;;;;;;5069606;28;20036;-85
2021/10/06 12:09:48;;;;;;;7.43;1.83;;;14.50;99.90;;;;;;5069104;28;20025;-85
2021/10/06 12:12:18;;;;;;;4.90;1.63;;;14.40;99.90;;;;;;5069382;28;20056;-85
2021/10/06 12:14:49;;;;;;;3.22;0.90;;;14.50;99.90;;;;;;5069482;28;20040;-84
2021/10/06 12:17:22;;;;;;;8.23;1.35;;;14.50;99.90;;;;;;5054086;28;20045;-84
2021/10/06 12:19:58;;;;;;;5.57;1.15;;;14.50;99.90;;;;;;5052792;28;20098;-84
2021/10/06 12:22:42;;;;;;;7.38;1.45;;;14.50;99.90;;;;;;5053974;28;20381;-86
2021/10/06 12:25:12;;;;;;;5.28;0.90;;;14.50;99.90;;;;;;5069295;28;20029;-84
2021/10/06 12:27:43;;;;;;;5.38;1.00;;;14.50;99.90;;;;;;5053815;28;20091;-85
2021/10/06 12:30:25;;;;;;;4.53;0.80;;;14.20;99.90;;;;;;5069153;28;20048;-84
2021/10/06 12:33:14;;;;;;;15.75;1.45;;;13.90;99.90;;;;;;5053458;28;20044;-81
2021/10/06 12:35:52;;;;;;;8.73;1.30;;;13.50;99.90;;;;;;5052448;28;20063;-78
2021/10/06 12:38:18;;;;;;;10.85;3.35;;;13.20;99.90;;;;;;5068885;28;20506;-77
2021/10/06 12:40:56;;;;;;;7.85;1.70;;;12.90;99.90;;;;;;5053514;28;20081;-78
2021/10/06 12:43:28;;;;;;;8.07;1.52;;;12.80;99.90;;;;;;5053130;28;20397;-79
2021/10/06 12:46:12;;;;;;;6.47;1.40;;;12.80;99.90;;;;;;5069152;28;20044;-80
2021/10/06 12:48:44;;;;;;;3.67;1.15;;;12.70;99.90;;;;;;5068451;28;20029;-80
2021/10/06 12:51:16;;;;;;;3.47;1.02;;;12.70;99.90;;;;;;5053103;28;20029;-80
2021/10/06 12:54:06;;;;;;;4.70;1.20;;;12.70;99.90;;;;;;5068651;28;20036;-79